Time;durP1;ratioP1;P1;durP2;ratioP2;P2;SDS_P1;SDS_P2;PMS_P1;PMS_P2;Temp;Humidity;BMP_temperature;BMP_pressure;BME280_temperature;BME280_humidity;BME280_pressure;Samples;Min_cycle;Max_cycle;Signal;HPM_P1;HPM_P2
2021/11/15 00:01:57;;;;;;;;;108.00;83.00;;;;;2.55;78.60;102411.31;4916370;29;8959;-72
2021/11/15 00:04:53;;;;;;;;;99.00;77.50;;;;;2.58;78.79;102411.66;4919778;29;8899;-73
2021/11/15 00:07:21;;;;;;;;;104.50;77.25;;;;;2.34;78.56;102399.03;4920251;29;8848;-72
2021/11/15 00:10:17;;;;;;;;;103.75;81.00;;;;;2.30;78.87;102401.44;4919122;29;8879;-72
2021/11/15 00:13:13;;;;;;;;;99.67;80.67;;;;;2.43;78.62;102411.28;4917605;29;8846;-72
2021/11/15 00:16:09;;;;;;;;;108.00;80.50;;;;;2.35;78.10;102406.16;4937772;29;9597;-72
2021/11/15 00:19:05;;;;;;;;;105.50;82.25;;;;;2.35;78.28;102411.63;4938084;29;8865;-72
2021/11/15 00:22:00;;;;;;;;;96.33;72.00;;;;;2.21;78.37;102411.00;4937841;29;8823;-72
2021/11/15 00:24:57;;;;;;;;;91.33;72.33;;;;;2.35;78.28;102409.72;4930392;29;8880;-72
2021/11/15 00:27:52;;;;;;;;;102.25;78.50;;;;;2.31;78.25;102411.28;4938200;29;8854;-72
2021/11/15 00:30:48;;;;;;;;;95.67;75.00;;;;;2.31;78.74;102405.00;4937847;29;8839;-72
2021/11/15 00:33:16;;;;;;;;;93.50;74.25;;;;;2.38;77.48;102405.72;4922244;29;8889;-72
2021/11/15 00:36:11;;;;;;;;;100.33;74.00;;;;;2.39;77.47;102412.84;4937745;29;9615;-72
2021/11/15 00:39:07;;;;;;;;;98.00;77.67;;;;;2.23;77.45;102398.78;4938405;29;9600;-72
2021/11/15 00:42:02;;;;;;;;;93.33;72.67;;;;;2.26;78.50;102404.84;4937718;29;8941;-72
2021/11/15 00:44:58;;;;;;;;;94.67;72.67;;;;;2.19;78.52;102396.75;4937176;29;8846;-72
2021/11/15 00:47:54;;;;;;;;;94.67;72.00;;;;;2.10;78.69;102395.44;4936675;29;9627;-72
2021/11/15 00:50:50;;;;;;;;;90.00;69.33;;;;;2.07;79.22;102398.59;4937432;29;8835;-72
2021/11/15 00:53:45;;;;;;;;;90.00;70.67;;;;;1.89;79.69;102392.13;4937406;29;8842;-72
2021/11/15 00:56:41;;;;;;;;;74.67;63.00;;;;;2.02;79.88;102395.75;4937696;29;8834;-72
2021/11/15 00:59:36;;;;;;;;;88.00;69.33;;;;;2.15;78.86;102412.78;4937381;29;8858;-72
2021/11/15 01:02:32;;;;;;;;;93.33;74.33;;;;;2.05;80.09;102398.84;4937547;29;9593;-72
2021/11/15 01:05:27;;;;;;;;;92.67;73.00;;;;;1.87;79.96;102402.47;4936875;29;8863;-71
2021/11/15 01:08:23;;;;;;;;;93.00;71.00;;;;;1.85;79.79;102395.59;4937726;29;8835;-72
2021/11/15 01:11:20;;;;;;;;;98.67;71.67;;;;;1.77;80.12;102395.91;4937024;29;8842;-72
2021/11/15 01:13:56;;;;;;;;;86.00;67.33;;;;;1.85;79.09;102393.69;4937706;29;8827;-71
2021/11/15 01:16:52;;;;;;;;;86.00;68.00;;;;;1.84;79.17;102399.34;4936972;29;8854;-72
2021/11/15 01:19:48;;;;;;;;;75.00;60.67;;;;;1.83;79.54;102389.50;4924850;29;8850;-71
2021/11/15 01:22:43;;;;;;;;;90.67;70.00;;;;;1.89;79.12;102392.13;4935764;29;8855;-71
2021/11/15 01:25:40;;;;;;;;;91.33;72.33;;;;;1.79;78.48;102386.41;4936662;29;8877;-71
2021/11/15 01:28:36;;;;;;;;;81.67;65.33;;;;;1.80;79.05;102385.34;4936667;29;8847;-71
2021/11/15 01:31:32;;;;;;;;;84.33;67.33;;;;;1.91;78.26;102391.91;4935646;29;8857;-71
2021/11/15 01:34:29;;;;;;;;;92.67;72.67;;;;;1.95;78.37;102384.94;4936396;29;8838;-71
2021/11/15 01:37:24;;;;;;;;;89.00;71.00;;;;;1.83;78.41;102384.88;4936590;29;8842;-71
2021/11/15 01:40:24;;;;;;;;;89.33;71.00;;;;;1.68;78.76;102379.81;4936467;29;9719;-71
2021/11/15 01:43:20;;;;;;;;;97.33;75.00;;;;;1.79;79.18;102375.50;4937156;29;8834;-72
2021/11/15 01:46:15;;;;;;;;;92.67;73.00;;;;;1.73;79.26;102365.50;4936490;29;8869;-72
2021/11/15 01:49:11;;;;;;;;;44.00;38.67;;;;;1.76;79.25;102364.19;4937017;29;8901;-72
2021/11/15 01:52:07;;;;;;;;;83.67;68.00;;;;;1.95;78.21;102358.47;4936394;29;8874;-72
2021/11/15 01:55:04;;;;;;;;;82.00;66.67;;;;;1.86;78.62;102372.69;4936955;29;8838;-72
2021/11/15 01:58:03;;;;;;;;;90.00;66.67;;;;;1.91;78.24;102367.34;4936873;29;8857;-72
2021/11/15 02:01:00;;;;;;;;;91.00;72.33;;;;;1.80;79.12;102382.63;4936210;29;8846;-72
2021/11/15 02:03:57;;;;;;;;;112.00;94.00;;;;;1.77;78.39;102383.09;4936055;29;8949;-72
2021/11/15 02:06:53;;;;;;;;;93.00;72.67;;;;;1.82;77.90;102377.75;4936057;29;8857;-72
2021/11/15 02:09:48;;;;;;;;;96.00;72.67;;;;;1.88;77.87;102374.09;4936998;29;8953;-72
2021/11/15 02:12:45;;;;;;;;;95.33;72.00;;;;;1.80;78.97;102381.78;4916917;29;8848;-72
2021/11/15 02:15:40;;;;;;;;;96.00;74.33;;;;;2.05;77.79;102395.28;4917904;29;8867;-72
2021/11/15 02:18:36;;;;;;;;;94.00;74.00;;;;;1.79;78.73;102378.22;4917998;29;8877;-72
2021/11/15 02:21:32;;;;;;;;;98.00;74.00;;;;;1.77;78.97;102391.28;4916977;29;8971;-71
2021/11/15 02:24:27;;;;;;;;;94.75;72.00;;;;;1.78;78.64;102389.38;4915751;29;8840;-72
2021/11/15 02:27:23;;;;;;;;;86.00;70.00;;;;;1.73;79.67;102391.97;4924157;29;8980;-72
2021/11/15 02:30:11;;;;;;;;;90.00;71.67;;;;;1.85;79.77;102388.22;4936723;29;8855;-71
2021/11/15 02:33:09;;;;;;;;;87.00;69.67;;;;;1.81;78.43;102395.19;4936130;29;8985;-71
2021/11/15 02:36:07;;;;;;;;;87.67;71.00;;;;;1.88;78.84;102401.41;4935690;29;8838;-71
2021/11/15 02:39:03;;;;;;;;;82.67;65.33;;;;;1.85;78.82;102392.84;4935558;29;8862;-72
2021/11/15 02:41:59;;;;;;;;;84.67;68.33;;;;;1.91;78.62;102400.91;4934897;29;8830;-72
2021/11/15 02:44:54;;;;;;;;;70.00;60.00;;;;;1.80;79.04;102393.53;4916956;29;8857;-71
2021/11/15 02:47:50;;;;;;;;;89.00;69.67;;;;;1.92;79.77;102402.63;4916387;29;8828;-72
2021/11/15 02:50:47;;;;;;;;;65.00;55.00;;;;;2.17;80.17;102390.69;4916390;29;8857;-71
2021/11/15 02:53:43;;;;;;;;;68.33;55.33;;;;;2.40;80.88;102401.66;4916161;29;8844;-71
2021/11/15 02:56:12;;;;;;;;;61.00;50.00;;;;;2.57;80.25;102392.78;4917255;29;8988;-72
2021/11/15 02:59:08;;;;;;;;;81.33;66.00;;;;;2.50;79.57;102391.00;4934931;29;8858;-72
2021/11/15 03:02:03;;;;;;;;;86.67;67.67;;;;;2.36;79.65;102395.00;4934558;29;8913;-72
2021/11/15 03:04:59;;;;;;;;;75.67;62.33;;;;;2.43;79.49;102409.38;4935593;29;8897;-72
2021/11/15 03:07:55;;;;;;;;;89.00;70.00;;;;;2.21;78.95;102398.16;4935127;29;8963;-71
2021/11/15 03:10:58;;;;;;;;;88.00;70.67;;;;;2.16;79.41;102399.97;4935022;29;8877;-72
2021/11/15 03:13:53;;;;;;;;;85.33;69.67;;;;;1.94;79.54;102405.09;4935032;29;8842;-72
2021/11/15 03:16:49;;;;;;;;;88.67;70.33;;;;;1.91;79.40;102400.09;4934753;29;8838;-72
2021/11/15 03:19:45;;;;;;;;;87.00;67.00;;;;;1.84;79.31;102396.63;4935685;29;8843;-72
2021/11/15 03:22:40;;;;;;;;;84.67;67.33;;;;;1.71;79.87;102394.91;4934995;29;8831;-72
2021/11/15 03:25:36;;;;;;;;;92.00;70.67;;;;;1.80;79.67;102389.97;4934792;29;8858;-72
2021/11/15 03:28:35;;;;;;;;;85.67;68.67;;;;;1.81;79.23;102397.09;4934825;29;8861;-71
2021/11/15 03:31:34;;;;;;;;;99.67;75.67;;;;;1.73;80.04;102398.25;4934703;29;8834;-71
2021/11/15 03:34:30;;;;;;;;;48.00;44.33;;;;;1.79;79.11;102400.06;4934823;29;8843;-71
2021/11/15 03:37:25;;;;;;;;;90.00;71.00;;;;;1.68;78.97;102390.72;4936650;29;9004;-73
2021/11/15 03:40:26;;;;;;;;;91.00;72.67;;;;;1.53;79.34;102387.56;4938682;29;8855;-71
2021/11/15 03:43:22;;;;;;;;;84.00;68.67;;;;;1.50;79.86;102385.31;4938503;29;8850;-71
2021/11/15 03:46:18;;;;;;;;;83.00;66.33;;;;;1.75;79.56;102398.84;4938526;29;8854;-71
2021/11/15 03:49:15;;;;;;;;;90.00;69.33;;;;;1.67;79.33;102401.88;4939358;29;8853;-70
2021/11/15 03:52:11;;;;;;;;;82.33;67.67;;;;;1.70;79.25;102401.44;4938624;29;8858;-71
2021/11/15 03:55:10;;;;;;;;;81.33;64.67;;;;;1.82;78.34;102399.59;4938509;29;8949;-71
2021/11/15 03:58:06;;;;;;;;;89.00;67.33;;;;;1.76;78.21;102394.22;4939156;29;8870;-71
2021/11/15 04:01:03;;;;;;;;;14.67;12.00;;;;;1.66;78.83;102402.94;4938107;29;8835;-71
2021/11/15 04:04:01;;;;;;;;;84.33;64.00;;;;;1.67;80.10;102416.34;4939163;29;8953;-71
2021/11/15 04:06:57;;;;;;;;;81.67;63.00;;;;;1.79;79.99;102415.59;4938902;29;8846;-71
2021/11/15 04:09:55;;;;;;;;;67.33;55.00;;;;;2.16;80.20;102413.59;4938261;29;9589;-71
2021/11/15 04:12:51;;;;;;;;;81.00;65.33;;;;;1.82;80.28;102413.22;4936495;29;9663;-71
2021/11/15 04:15:50;;;;;;;;;80.33;65.00;;;;;1.95;79.48;102421.25;4938139;29;8850;-71
2021/11/15 04:18:21;;;;;;;;;87.33;71.33;;;;;1.79;80.09;102410.97;4939194;29;8874;-71
2021/11/15 04:21:03;;;;;;;;;83.67;66.33;;;;;1.89;79.97;102424.88;4924009;29;9639;-71
2021/11/15 04:23:31;;;;;;;;;90.67;72.00;;;;;1.79;79.09;102427.34;4938735;29;8887;-71
2021/11/15 04:26:27;;;;;;;;;83.33;65.67;;;;;1.85;78.94;102431.88;4937697;29;8838;-72
2021/11/15 04:29:22;;;;;;;;;87.67;70.67;;;;;1.81;79.42;102427.09;4937937;29;8854;-72
2021/11/15 04:32:19;;;;;;;;;80.00;66.00;;;;;1.67;80.58;102426.44;4937666;29;8850;-73
2021/11/15 04:35:20;;;;;;;;;81.00;64.33;;;;;1.61;81.00;102427.34;4937722;29;8830;-71
2021/11/15 04:38:15;;;;;;;;;77.33;63.33;;;;;1.67;80.58;102424.53;4937497;29;8868;-72
2021/11/15 04:41:14;;;;;;;;;81.67;67.00;;;;;1.67;79.89;102438.16;4937413;29;8838;-71
2021/11/15 04:44:09;;;;;;;;;79.67;63.67;;;;;1.54;80.50;102448.44;4937432;29;8865;-72
2021/11/15 04:47:05;;;;;;;;;84.67;64.67;;;;;1.56;80.87;102449.88;4937613;29;8969;-72
2021/11/15 04:50:03;;;;;;;;;90.67;71.67;;;;;1.52;80.05;102453.25;4936848;29;8939;-72
2021/11/15 04:53:00;;;;;;;;;88.00;69.33;;;;;1.46;80.49;102457.75;4937373;29;8860;-72
2021/11/15 04:55:56;;;;;;;;;78.33;63.67;;;;;1.51;79.69;102463.34;4938310;29;8886;-72
2021/11/15 04:58:52;;;;;;;;;83.67;66.33;;;;;1.54;79.18;102468.34;4937814;29;8873;-73
2021/11/15 05:01:48;;;;;;;;;82.00;66.33;;;;;1.48;79.06;102471.16;4936593;29;9647;-72
2021/11/15 05:04:43;;;;;;;;;90.00;68.67;;;;;1.47;79.00;102475.78;4937501;29;8877;-73
2021/11/15 05:07:40;;;;;;;;;89.00;70.67;;;;;1.56;79.88;102477.13;4937140;29;8871;-71
2021/11/15 05:10:35;;;;;;;;;100.00;71.67;;;;;1.64;79.37;102487.75;4937204;29;8848;-71
2021/11/15 05:13:31;;;;;;;;;92.67;73.00;;;;;1.62;79.00;102486.31;4936899;29;8866;-73
2021/11/15 05:16:27;;;;;;;;;87.00;70.67;;;;;1.60;79.42;102486.50;4936108;29;9756;-71
2021/11/15 05:19:22;;;;;;;;;83.67;68.00;;;;;1.77;79.88;102486.75;4936965;29;8878;-71
2021/11/15 05:21:50;;;;;;;;;88.00;70.00;;;;;1.75;79.93;102494.31;4938026;29;8850;-70
2021/11/15 05:24:46;;;;;;;;;86.33;67.67;;;;;1.87;81.68;102492.50;4936952;29;8910;-72
2021/11/15 05:27:41;;;;;;;;;84.67;67.33;;;;;1.99;82.08;102495.28;4935744;29;8930;-70
2021/11/15 05:30:13;;;;;;;;;82.00;63.00;;;;;2.15;82.04;102482.94;4936613;29;8847;-72
2021/11/15 05:32:41;;;;;;;;;73.33;57.67;;;;;2.37;81.10;102485.94;4936653;29;8862;-71
2021/11/15 05:35:37;;;;;;;;;97.33;77.00;;;;;2.36;81.08;102493.31;4936543;29;8834;-71
2021/11/15 05:38:34;;;;;;;;;94.00;73.67;;;;;2.33;81.71;102493.78;4936457;29;8845;-70
2021/11/15 05:41:29;;;;;;;;;98.67;73.33;;;;;2.43;80.68;102491.31;4936958;29;8886;-71
2021/11/15 05:44:25;;;;;;;;;98.33;75.67;;;;;2.42;80.84;102494.28;4937158;29;8834;-71
2021/11/15 05:47:21;;;;;;;;;102.50;82.75;;;;;2.56;79.98;102490.28;4936547;29;8835;-71
2021/11/15 05:50:19;;;;;;;;;107.50;82.25;;;;;2.65;79.75;102493.53;4936582;29;8826;-71
2021/11/15 05:53:16;;;;;;;;;110.00;91.25;;;;;2.81;79.47;102498.31;4935817;29;8843;-71
2021/11/15 05:56:12;;;;;;;;;121.75;85.75;;;;;2.94;79.15;102498.09;4937021;29;8840;-71
2021/11/15 05:59:08;;;;;;;;;113.00;91.50;;;;;3.12;79.19;102504.53;4936994;29;8900;-71
2021/11/15 06:02:04;;;;;;;;;94.67;69.33;;;;;3.34;79.32;102511.06;4935292;29;8905;-71
2021/11/15 06:04:59;;;;;;;;;90.33;70.00;;;;;3.54;78.99;102507.97;4935510;29;8843;-70
2021/11/15 06:07:56;;;;;;;;;68.33;57.33;;;;;3.62;78.82;102513.09;4935552;29;8859;-70
2021/11/15 06:10:53;;;;;;;;;79.33;61.67;;;;;3.86;78.23;102502.94;4935301;29;8972;-71
2021/11/15 06:13:48;;;;;;;;;87.00;69.33;;;;;3.98;78.19;102502.88;4934225;29;8838;-70
2021/11/15 06:16:44;;;;;;;;;84.67;67.00;;;;;4.02;77.93;102506.81;4935487;29;8854;-69
2021/11/15 06:19:40;;;;;;;;;88.33;67.00;;;;;4.11;77.62;102503.44;4937053;29;8845;-70
2021/11/15 06:22:36;;;;;;;;;78.67;64.33;;;;;4.30;77.38;102512.31;4917343;29;8871;-69
2021/11/15 06:25:34;;;;;;;;;73.00;58.00;;;;;4.31;77.16;102513.97;4935637;29;8926;-69
2021/11/15 06:28:29;;;;;;;;;75.67;63.00;;;;;4.65;76.50;102517.59;4934323;28;8834;-69
2021/11/15 06:31:25;;;;;;;;;85.33;65.00;;;;;4.78;76.27;102521.13;4931358;29;8843;-68
2021/11/15 06:34:21;;;;;;;;;79.33;64.33;;;;;4.99;75.96;102514.91;4935890;28;9576;-68
2021/11/15 06:37:17;;;;;;;;;71.00;58.67;;;;;5.01;75.72;102529.19;4922963;29;8872;-69
2021/11/15 06:40:14;;;;;;;;;68.33;57.67;;;;;5.02;75.88;102525.38;4934751;29;8838;-68
2021/11/15 06:43:10;;;;;;;;;75.00;61.67;;;;;5.13;75.70;102532.69;4934972;29;9644;-68
2021/11/15 06:46:06;;;;;;;;;71.33;56.00;;;;;5.15;75.45;102526.97;4916615;29;8888;-68
2021/11/15 06:49:02;;;;;;;;;64.00;51.33;;;;;5.23;75.51;102521.06;4924740;29;11526;-68
2021/11/15 06:51:57;;;;;;;;;65.00;51.67;;;;;5.27;75.53;102522.19;4934209;29;12364;-68
2021/11/15 06:54:53;;;;;;;;;73.33;60.67;;;;;5.53;74.86;102526.19;4935619;29;8945;-67
2021/11/15 06:57:49;;;;;;;;;68.67;55.33;;;;;5.52;74.56;102536.34;4934698;29;8889;-68
2021/11/15 07:00:45;;;;;;;;;61.33;53.00;;;;;5.70;74.33;102532.47;4934883;29;11559;-68
2021/11/15 07:03:40;;;;;;;;;69.67;55.00;;;;;5.81;73.80;102528.75;4934353;29;11702;-68
2021/11/15 07:06:37;;;;;;;;;69.67;58.33;;;;;6.04;72.87;102543.38;4934668;29;11584;-68
2021/11/15 07:09:32;;;;;;;;;72.25;58.25;;;;;6.24;71.96;102540.88;4934761;29;11703;-68
2021/11/15 07:12:28;;;;;;;;;66.00;53.75;;;;;6.18;71.75;102533.66;4934738;29;11574;-68
2021/11/15 07:15:23;;;;;;;;;66.25;56.00;;;;;6.00;72.67;102543.06;4935244;29;12496;-68
2021/11/15 07:18:19;;;;;;;;;62.00;52.00;;;;;5.99;72.64;102549.63;4915646;29;11615;-68
2021/11/15 07:21:14;;;;;;;;;69.50;57.00;;;;;6.03;72.33;102553.53;4915679;29;11548;-68
2021/11/15 07:24:10;;;;;;;;;71.25;56.50;;;;;6.43;71.18;102562.50;4915427;29;12438;-69
2021/11/15 07:27:06;;;;;;;;;63.75;51.25;;;;;6.67;70.93;102570.22;4915458;29;12366;-68
2021/11/15 07:30:04;;;;;;;;;68.00;55.25;;;;;6.87;70.21;102566.84;4915371;29;11568;-68
2021/11/15 07:33:00;;;;;;;;;69.25;55.50;;;;;6.96;69.33;102573.53;4915267;29;11613;-69
2021/11/15 07:35:56;;;;;;;;;60.00;50.50;;;;;6.87;69.45;102569.59;4915173;29;11598;-68
2021/11/15 07:38:51;;;;;;;;;57.25;49.00;;;;;7.07;69.29;102574.47;4915516;29;11576;-68
2021/11/15 07:41:48;;;;;;;;;59.00;50.00;;;;;7.23;68.30;102579.00;4932636;29;11546;-69
2021/11/15 07:44:45;;;;;;;;;58.25;49.25;;;;;7.46;67.60;102579.75;4933701;29;11538;-68
2021/11/15 07:47:42;;;;;;;;;56.25;45.75;;;;;7.45;67.75;102583.59;4916020;29;12244;-69
2021/11/15 07:50:38;;;;;;;;;65.50;53.50;;;;;7.55;67.26;102589.16;4915288;29;11721;-68
2021/11/15 07:53:37;;;;;;;;;59.50;51.00;;;;;7.77;66.63;102583.53;4928004;29;12262;-69
2021/11/15 07:56:33;;;;;;;;;61.50;50.50;;;;;7.70;66.62;102571.91;4936075;29;11655;-69
2021/11/15 07:59:29;;;;;;;;;53.00;44.50;;;;;7.80;66.12;102581.06;4926749;29;11548;-70
2021/11/15 08:02:25;;;;;;;;;52.25;42.75;;;;;8.20;65.20;102584.28;4921135;29;11553;-68
2021/11/15 08:05:22;;;;;;;;;61.25;49.50;;;;;8.70;64.37;102582.84;4934241;29;12322;-69
2021/11/15 08:08:17;;;;;;;;;55.50;45.50;;;;;8.77;63.86;102588.94;4934069;29;11544;-69
2021/11/15 08:11:15;;;;;;;;;53.25;45.75;;;;;8.71;63.34;102587.28;4934893;29;11535;-69
2021/11/15 08:14:13;;;;;;;;;48.50;43.00;;;;;8.72;63.39;102595.25;4933563;29;11591;-69
2021/11/15 08:17:13;;;;;;;;;53.75;41.00;;;;;8.76;63.45;102595.56;4933538;29;11525;-69
2021/11/15 08:19:41;;;;;;;;;46.75;40.00;;;;;8.74;63.04;102600.50;4934530;29;12345;-70
2021/11/15 08:22:37;;;;;;;;;48.25;44.00;;;;;8.58;63.99;102597.72;4933762;29;11576;-69
2021/11/15 08:26:14;;;;;;;;;46.50;42.00;;;;;8.76;63.94;102592.81;4936885;29;11559;-69
2021/11/15 08:29:02;;;;;;;;;44.25;39.75;;;;;9.33;62.52;102594.50;4910966;29;11571;-69
2021/11/15 08:32:05;;;;;;;;;41.50;37.75;;;;;9.45;61.99;102603.38;4937076;29;11558;-69
2021/11/15 08:35:02;;;;;;;;;44.75;41.00;;;;;9.43;61.66;102594.50;4937480;29;11623;-69
2021/11/15 08:38:10;;;;;;;;;49.75;44.25;;;;;9.67;61.24;102601.13;4926559;29;11522;-69
2021/11/15 08:41:05;;;;;;;;;38.50;37.50;;;;;10.09;60.05;102596.34;4937502;29;11668;-69
2021/11/15 08:44:05;;;;;;;;;35.50;33.50;;;;;10.08;59.44;102587.22;4940636;29;11579;-69
2021/11/15 08:47:01;;;;;;;;;36.75;32.75;;;;;10.24;58.83;102585.25;4937487;29;11497;-70
2021/11/15 08:49:56;;;;;;;;;33.75;32.00;;;;;10.59;58.60;102592.56;4934396;29;11528;-68
2021/11/15 08:52:52;;;;;;;;;34.25;33.00;;;;;9.97;58.36;102580.91;4937110;29;11611;-70
2021/11/15 08:55:48;;;;;;;;;37.00;35.00;;;;;10.42;57.77;102573.53;4936500;29;11514;-70
2021/11/15 08:58:46;;;;;;;;;40.75;38.25;;;;;9.96;57.62;102576.47;4937397;29;11490;-70
2021/11/15 09:01:42;;;;;;;;;37.00;35.25;;;;;10.27;57.74;102580.00;4936615;29;12317;-69
2021/11/15 09:04:38;;;;;;;;;35.25;33.25;;;;;10.16;57.80;102583.03;4936924;29;11496;-70
2021/11/15 09:07:37;;;;;;;;;44.00;37.00;;;;;10.02;57.90;102577.28;4936992;29;11320;-69
2021/11/15 09:10:32;;;;;;;;;39.75;36.50;;;;;10.50;56.81;102574.88;4924181;29;11515;-70
2021/11/15 09:13:28;;;;;;;;;29.25;29.25;;;;;9.82;58.13;102580.94;4936757;29;11505;-69
2021/11/15 09:16:25;;;;;;;;;40.25;38.50;;;;;10.32;58.06;102579.13;4936739;29;11475;-70
2021/11/15 09:19:21;;;;;;;;;37.25;34.50;;;;;10.02;57.53;102577.28;4936618;29;11514;-70
2021/11/15 09:22:17;;;;;;;;;37.00;36.00;;;;;9.88;57.83;102576.22;4936579;29;11534;-70
2021/11/15 09:25:13;;;;;;;;;35.75;32.25;;;;;9.96;58.31;102570.09;4936697;29;11522;-70
2021/11/15 09:28:09;;;;;;;;;32.00;31.50;;;;;10.30;56.81;102586.91;4936415;29;12390;-69
2021/11/15 09:31:07;;;;;;;;;33.75;32.25;;;;;10.80;56.09;102582.19;4936431;29;11503;-69
2021/11/15 09:34:02;;;;;;;;;38.25;36.50;;;;;10.71;55.67;102589.44;4936253;29;11487;-69
2021/11/15 09:36:58;;;;;;;;;48.50;43.00;;;;;10.74;55.03;102595.25;4936394;29;11479;-69
2021/11/15 09:39:55;;;;;;;;;44.50;39.50;;;;;10.60;55.46;102601.69;4936252;29;12292;-69
2021/11/15 09:42:55;;;;;;;;;47.00;41.00;;;;;10.80;54.94;102601.56;4936171;29;11500;-69
2021/11/15 09:45:52;;;;;;;;;37.50;34.50;;;;;10.49;54.23;102595.38;4936145;29;11526;-69
2021/11/15 09:48:51;;;;;;;;;47.00;41.00;;;;;10.48;54.76;102593.72;4923348;29;12117;-69
2021/11/15 09:51:48;;;;;;;;;36.00;35.75;;;;;10.61;54.80;102595.06;4936120;29;11513;-69
2021/11/15 09:54:46;;;;;;;;;29.25;29.25;;;;;10.37;55.19;102603.19;4936078;29;11512;-69
2021/11/15 09:57:44;;;;;;;;;50.50;42.50;;;;;10.96;54.68;102600.34;4936230;29;11231;-69
2021/11/15 10:00:44;;;;;;;;;40.00;36.50;;;;;11.05;54.39;102604.19;4936000;29;11500;-69
2021/11/15 10:03:39;;;;;;;;;33.25;31.75;;;;;11.12;53.68;102601.09;4935484;29;11525;-70
2021/11/15 10:06:35;;;;;;;;;34.75;32.25;;;;;11.11;53.34;102602.19;4935638;29;11236;-69
2021/11/15 10:09:34;;;;;;;;;54.00;36.50;;;;;11.43;52.19;102610.00;4936006;29;11298;-70
2021/11/15 10:12:29;;;;;;;;;26.00;25.50;;;;;11.22;52.24;102603.78;4935724;29;11509;-69
2021/11/15 10:15:25;;;;;;;;;43.00;39.00;;;;;11.41;52.59;102601.94;4936017;29;10933;-71
2021/11/15 10:18:28;;;;;;;;;30.25;30.25;;;;;10.84;53.02;102602.66;4935723;29;11523;-70
2021/11/15 10:21:40;;;;;;;;;30.75;29.75;;;;;11.08;53.28;102602.78;4935935;29;11004;-70
2021/11/15 10:24:39;;;;;;;;;31.25;30.00;;;;;11.64;52.10;102605.06;4922958;29;11501;-69
2021/11/15 10:27:36;;;;;;;;;27.50;27.50;;;;;11.57;52.44;102605.41;4935502;29;11490;-70
2021/11/15 10:30:35;;;;;;;;;26.50;26.50;;;;;10.10;54.86;102598.81;4935627;29;11218;-71
2021/11/15 10:33:40;;;;;;;;;26.75;26.00;;;;;9.76;55.85;102598.63;4935434;29;11258;-71
2021/11/15 10:36:45;;;;;;;;;28.50;27.75;;;;;9.94;55.97;102602.72;4935380;29;11154;-71
2021/11/15 10:39:12;;;;;;;;;27.75;27.75;;;;;9.82;55.94;102607.75;4936666;29;11529;-71
2021/11/15 10:41:41;;;;;;;;;30.25;30.25;;;;;10.57;54.50;102606.66;4936429;29;11306;-71
2021/11/15 10:44:12;;;;;;;;;29.25;28.50;;;;;10.84;54.00;102603.50;4936284;29;11526;-71
2021/11/15 10:46:41;;;;;;;;;27.00;26.25;;;;;11.30;52.89;102608.69;4918076;29;11223;-71
2021/11/15 10:49:10;;;;;;;;;28.00;25.50;;;;;10.23;52.74;102597.44;4919983;29;11593;-71
2021/11/15 10:52:03;;;;;;;;;24.50;24.50;;;;;10.57;52.21;102597.53;4936204;29;11198;-71
2021/11/15 10:54:58;;;;;;;;;28.00;26.25;;;;;10.69;51.51;102603.56;4935961;29;11330;-70
2021/11/15 10:57:28;;;;;;;;;26.25;24.50;;;;;10.69;51.56;102600.81;4935946;29;11526;-72
2021/11/15 11:00:08;;;;;;;;;25.50;25.50;;;;;11.37;50.39;102611.16;4936008;29;11138;-70
2021/11/15 11:02:42;;;;;;;;;22.75;20.75;;;;;11.33;50.20;102610.88;4935893;29;11225;-70
2021/11/15 11:05:14;;;;;;;;;30.00;29.50;;;;;11.57;50.01;102612.91;4919252;29;11171;-70
2021/11/15 11:07:48;;;;;;;;;28.50;28.50;;;;;11.92;49.20;102611.75;4936042;29;11161;-70
2021/11/15 11:10:19;;;;;;;;;25.50;25.00;;;;;11.78;49.95;102611.59;4936014;29;11231;-69
2021/11/15 11:13:02;;;;;;;;;42.75;38.50;;;;;11.68;49.90;102620.03;4918988;29;11005;-70
2021/11/15 11:15:41;;;;;;;;;20.25;20.25;;;;;11.47;49.71;102624.09;4919548;29;11538;-71
2021/11/15 11:18:17;;;;;;;;;29.75;25.50;;;;;11.56;50.33;102619.56;4935553;29;10759;-70
2021/11/15 11:25:55;;;;;;;;;26.25;25.75;;;;;11.82;49.48;102625.75;4935682;29;10929;-70
2021/11/15 11:28:35;;;;;;;;;22.50;22.50;;;;;11.53;49.77;102625.69;4935843;29;10915;-70
2021/11/15 11:31:06;;;;;;;;;28.75;24.50;;;;;11.03;51.04;102619.41;4935729;29;11530;-70
2021/11/15 11:33:34;;;;;;;;;26.75;26.75;;;;;11.44;50.58;102624.69;4935377;29;10908;-68
2021/11/15 11:36:05;;;;;;;;;23.25;23.25;;;;;11.16;50.13;102617.94;4935598;29;10902;-71
2021/11/15 11:38:33;;;;;;;;;31.25;29.50;;;;;11.54;49.55;102622.63;4918644;29;10936;-72
2021/11/15 11:41:29;;;;;;;;;20.00;19.25;;;;;11.10;50.00;102625.47;4932982;29;11338;-71
2021/11/15 11:44:27;;;;;;;;;22.00;22.00;;;;;11.15;50.40;102630.97;4934207;29;10869;-71
2021/11/15 11:46:59;;;;;;;;;26.00;25.75;;;;;10.66;51.20;102637.38;4934410;29;11801;-71
2021/11/15 11:49:57;;;;;;;;;24.00;21.50;;;;;11.19;51.13;102639.53;4934521;29;11127;-70
2021/11/15 11:53:07;;;;;;;;;28.00;28.00;;;;;10.54;50.96;102643.22;4934091;29;11075;-71
2021/11/15 11:56:21;;;;;;;;;25.75;20.75;;;;;10.45;51.32;102642.16;4921282;29;11277;-70
2021/11/15 11:58:53;;;;;;;;;25.25;23.25;;;;;10.34;51.61;102642.47;4936413;29;12019;-71
2021/11/15 12:01:57;;;;;;;;;30.00;28.25;;;;;10.61;51.66;102650.38;4925411;29;11228;-71
2021/11/15 12:05:05;;;;;;;;;23.75;23.50;;;;;10.51;51.29;102648.50;4938936;29;11500;-72
2021/11/15 12:08:02;;;;;;;;;30.00;30.00;;;;;10.24;51.69;102646.91;4937809;29;11332;-72
2021/11/15 12:10:59;;;;;;;;;22.00;19.50;;;;;9.95;53.13;102648.63;4937566;29;11505;-72
2021/11/15 12:13:56;;;;;;;;;21.75;21.75;;;;;9.76;53.41;102642.84;4937204;29;11478;-72
2021/11/15 12:17:05;;;;;;;;;25.50;22.50;;;;;10.03;53.08;102659.94;4937512;29;11482;-72
2021/11/15 12:20:05;;;;;;;;;29.00;28.50;;;;;10.45;52.53;102656.00;4937686;29;11487;-71
2021/11/15 12:23:12;;;;;;;;;19.75;18.75;;;;;10.29;52.58;102657.16;4937931;29;11490;-73
2021/11/15 12:26:17;;;;;;;;;25.00;25.00;;;;;10.53;52.22;102654.56;4937677;29;11215;-71
2021/11/15 12:29:30;;;;;;;;;22.25;22.25;;;;;10.24;53.37;102648.84;4938485;29;11238;-70
2021/11/15 12:32:26;;;;;;;;;25.50;25.50;;;;;10.25;54.06;102662.41;4937426;29;11488;-70
2021/11/15 12:35:21;;;;;;;;;28.50;26.00;;;;;10.21;53.57;102666.81;4937194;29;11523;-69
2021/11/15 12:38:37;;;;;;;;;22.75;22.00;;;;;10.49;52.91;102664.53;4938022;28;11510;-70
2021/11/15 12:41:35;;;;;;;;;24.75;24.00;;;;;10.81;52.18;102670.50;4937303;29;11195;-70
2021/11/15 12:44:37;;;;;;;;;22.75;20.50;;;;;10.47;52.55;102677.84;4937422;29;11488;-70
2021/11/15 12:47:41;;;;;;;;;28.75;28.50;;;;;10.60;52.66;102676.41;4938025;29;11044;-70
2021/11/15 12:50:36;;;;;;;;;26.25;25.75;;;;;10.63;52.94;102689.66;4937420;29;11149;-71
2021/11/15 12:53:32;;;;;;;;;22.50;22.25;;;;;10.73;52.33;102693.22;4938611;29;11345;-70
2021/11/15 12:56:29;;;;;;;;;28.25;24.00;;;;;10.16;53.07;102688.13;4922977;29;10995;-72
2021/11/15 12:58:57;;;;;;;;;24.25;24.25;;;;;10.25;53.55;102697.53;4938235;29;11136;-70
2021/11/15 13:01:54;;;;;;;;;23.25;23.00;;;;;10.45;53.16;102707.72;4936674;29;11152;-70
2021/11/15 13:04:49;;;;;;;;;19.25;19.25;;;;;10.05;53.99;102701.16;4936445;29;11161;-69
2021/11/15 13:07:48;;;;;;;;;23.00;23.00;;;;;10.16;53.57;102718.53;4937434;29;11178;-70
2021/11/15 13:10:47;;;;;;;;;17.00;16.50;;;;;10.33;53.29;102729.31;4935910;29;11287;-70
2021/11/15 13:13:43;;;;;;;;;31.25;26.25;;;;;10.26;53.88;102724.06;4936967;29;11165;-70
2021/11/15 13:16:47;;;;;;;;;27.75;27.00;;;;;10.30;53.26;102734.31;4936076;29;11298;-70
2021/11/15 13:19:51;;;;;;;;;22.50;22.00;;;;;10.20;53.75;102725.19;4936259;29;11207;-69
2021/11/15 13:22:48;;;;;;;;;23.75;23.75;;;;;9.84;54.33;102738.19;4935080;29;11285;-69
2021/11/15 13:25:43;;;;;;;;;26.50;24.50;;;;;9.64;54.34;102745.34;4936234;29;11482;-69
2021/11/15 13:28:39;;;;;;;;;23.00;23.00;;;;;9.53;54.83;102753.91;4936846;29;11515;-69